Time;durP1;ratioP1;P1;durP2;ratioP2;P2;SDS_P1;SDS_P2;PMS_P1;PMS_P2;Temp;Humidity;BMP_temperature;BMP_pressure;BME280_temperature;BME280_humidity;BME280_pressure;Samples;Min_cycle;Max_cycle;Signal;HPM_P1;HPM_P2
2023/01/28 00:01:45;;;;;;;;;;;;;;;9.97;46.08;101597.19;4940663;28;116146;-66
2023/01/28 00:04:11;;;;;;;;;;;;;;;9.98;46.43;101594.25;4939253;28;127043;-67
2023/01/28 00:06:37;;;;;;;;;;;;;;;9.99;46.08;101595.09;4942518;28;128595;-67
2023/01/28 00:09:03;;;;;;;;;;;;;;;9.99;46.40;101598.59;4939714;28;126842;-66
2023/01/28 00:11:29;;;;;;;;;;;;;;;10.00;46.50;101599.41;4940986;28;116727;-67
2023/01/28 00:13:55;;;;;;;;;;;;;;;10.00;45.81;101605.59;4955419;28;127034;-66
2023/01/28 00:16:21;;;;;;;;;;;;;;;10.00;46.12;101602.09;4943058;28;98060;-66
2023/01/28 00:18:47;;;;;;;;;;;;;;;10.02;46.38;101602.66;4958647;28;97932;-68
2023/01/28 00:21:14;;;;;;;;;;;;;;;10.02;46.43;101608.06;4937360;28;115726;-66
2023/01/28 00:23:41;;;;;;;;;;;;;;;10.03;46.40;101607.84;4953413;28;114067;-67
2023/01/28 00:26:10;;;;;;;;;;;;;;;10.03;46.39;101601.63;4938158;28;98463;-67
2023/01/28 00:28:36;;;;;;;;;;;;;;;10.05;46.77;101613.78;4944182;28;117883;-67
2023/01/28 00:31:11;;;;;;;;;;;;;;;10.06;46.16;101618.16;4954586;28;118367;-65
2023/01/28 00:33:37;;;;;;;;;;;;;;;10.06;46.56;101611.91;4942227;28;122111;-65
2023/01/28 00:36:05;;;;;;;;;;;;;;;10.06;46.89;101614.59;4955325;28;127410;-66
2023/01/28 00:38:31;;;;;;;;;;;;;;;10.06;46.29;101606.53;4961249;28;99769;-65
2023/01/28 00:41:07;;;;;;;;;;;;;;;10.06;46.75;101610.06;4943784;28;113192;-65
2023/01/28 00:43:33;;;;;;;;;;;;;;;10.06;46.93;101611.91;4958640;28;99680;-65
2023/01/28 00:45:59;;;;;;;;;;;;;;;10.06;46.76;101609.22;4940583;28;127673;-65
2023/01/28 00:48:24;;;;;;;;;;;;;;;10.07;46.38;101610.88;4954811;28;127731;-65
2023/01/28 00:50:50;;;;;;;;;;;;;;;10.07;46.72;101608.19;4947655;28;116664;-66
2023/01/28 00:53:16;;;;;;;;;;;;;;;10.06;46.27;101607.38;4956271;28;128091;-65
2023/01/28 00:55:42;;;;;;;;;;;;;;;10.06;46.22;101612.75;4941492;28;128515;-66
2023/01/28 00:58:08;;;;;;;;;;;;;;;10.06;46.27;101618.16;4927560;28;126219;-65
2023/01/28 01:00:34;;;;;;;;;;;;;;;10.07;46.50;101610.88;4943083;28;98074;-65
2023/01/28 01:03:00;;;;;;;;;;;;;;;10.07;46.42;101618.97;4958124;28;128235;-65
2023/01/28 01:05:26;;;;;;;;;;;;;;;10.05;46.89;101616.47;4942788;28;127577;-65
2023/01/28 01:07:52;;;;;;;;;;;;;;;10.06;46.55;101611.91;4932352;28;97938;-65
2023/01/28 01:10:18;;;;;;;;;;;;;;;10.04;46.46;101616.72;4945789;28;97945;-65
2023/01/28 01:12:48;;;;;;;;;;;;;;;10.05;46.40;101626.44;4959676;28;120878;-65
2023/01/28 01:15:14;;;;;;;;;;;;;;;10.06;45.91;101633.47;4960055;28;99437;-65
2023/01/28 01:17:41;;;;;;;;;;;;;;;10.06;46.39;101625.38;4928997;28;116439;-65
2023/01/28 01:20:10;;;;;;;;;;;;;;;10.05;46.38;101626.44;4927490;28;99301;-65
2023/01/28 01:22:36;;;;;;;;;;;;;;;10.05;46.61;101626.44;4957169;28;98879;-65
2023/01/28 01:25:03;;;;;;;;;;;;;;;10.03;46.15;101632.09;4956793;28;128980;-66
2023/01/28 01:27:29;;;;;;;;;;;;;;;10.03;46.17;101625.88;4959070;28;97949;-65
2023/01/28 01:29:55;;;;;;;;;;;;;;;10.01;46.60;101627.97;4942232;28;109830;-66
2023/01/28 01:32:21;;;;;;;;;;;;;;;10.01;46.29;101633.34;4957656;28;114741;-65
2023/01/28 01:34:48;;;;;;;;;;;;;;;10.00;46.96;101631.72;4944535;28;99535;-67
2023/01/28 01:37:14;;;;;;;;;;;;;;;9.98;46.05;101626.59;4938921;28;97841;-65
2023/01/28 01:39:40;;;;;;;;;;;;;;;9.96;46.70;101617.91;4959606;28;117738;-65
2023/01/28 01:42:08;;;;;;;;;;;;;;;9.95;46.79;101623.53;4941748;28;128109;-65
2023/01/28 01:44:57;;;;;;;;;;;;;;;9.93;46.22;101634.53;4940133;28;123667;-64
2023/01/28 01:47:44;;;;;;;;;;;;;;;9.91;46.55;101628.56;4959595;28;112071;-64
2023/01/28 01:50:15;;;;;;;;;;;;;;;9.88;46.21;101628.22;4957666;28;98244;-65
2023/01/28 01:52:41;;;;;;;;;;;;;;;9.87;46.25;101618.50;4942108;28;98110;-65
2023/01/28 01:55:11;;;;;;;;;;;;;;;9.84;46.57;101636.75;4957224;28;128203;-66
2023/01/28 01:57:36;;;;;;;;;;;;;;;9.83;46.55;101637.00;4946190;28;98063;-66
2023/01/28 02:00:05;;;;;;;;;;;;;;;9.81;46.91;101639.91;4942844;28;115496;-67
2023/01/28 02:02:42;;;;;;;;;;;;;;;9.80;46.50;101632.91;4958742;28;98398;-66
2023/01/28 02:05:08;;;;;;;;;;;;;;;9.79;46.31;101638.53;4943301;28;98600;-66
2023/01/28 02:07:34;;;;;;;;;;;;;;;9.78;46.51;101645.75;4941271;28;98093;-67
2023/01/28 02:10:00;;;;;;;;;;;;;;;9.77;46.18;101633.34;4943886;28;98043;-66
2023/01/28 02:12:33;;;;;;;;;;;;;;;9.76;46.91;101645.19;4956204;28;128552;-66
2023/01/28 02:15:05;;;;;;;;;;;;;;;9.76;46.43;101641.69;4941459;28;99645;-66
2023/01/28 02:17:31;;;;;;;;;;;;;;;9.74;46.77;101639.22;4959945;28;97812;-66
2023/01/28 02:20:05;;;;;;;;;;;;;;;9.73;45.90;101636.75;4960657;28;118573;-67
2023/01/28 02:23:10;;;;;;;;;;;;;;;9.72;46.00;101641.34;4941957;28;98000;-68
2023/01/28 02:26:06;;;;;;;;;;;;;;;9.72;46.61;101653.97;4956574;28;98363;-66
2023/01/28 02:28:40;;;;;;;;;;;;;;;9.72;46.81;101648.59;4955096;28;97952;-67
2023/01/28 02:31:12;;;;;;;;;;;;;;;9.71;46.41;101652.34;4954242;28;110737;-67
2023/01/28 02:33:52;;;;;;;;;;;;;;;9.71;46.17;101657.72;4941826;28;128879;-66
2023/01/28 02:36:23;;;;;;;;;;;;;;;9.71;46.26;101658.53;4955730;28;98166;-66
2023/01/28 02:38:49;;;;;;;;;;;;;;;9.69;46.73;101655.25;4957979;28;98042;-66
2023/01/28 02:41:38;;;;;;;;;;;;;;;9.70;46.40;101651.50;4958267;28;118623;-66
2023/01/28 02:44:04;;;;;;;;;;;;;;;9.70;46.30;101650.69;4937592;28;126652;-67
2023/01/28 02:49:23;;;;;;;;;;;;;;;9.70;46.50;101664.16;4958114;28;97669;-67
2023/01/28 02:51:58;;;;;;;;;;;;;;;9.68;46.17;101655.50;4944545;28;97957;-67
2023/01/28 02:54:45;;;;;;;;;;;;;;;9.68;46.94;101660.88;4956553;28;98364;-67
2023/01/28 02:57:21;;;;;;;;;;;;;;;9.68;46.45;101656.31;4972062;27;106983;-67
2023/01/28 03:00:09;;;;;;;;;;;;;;;9.68;45.95;101655.50;4956223;28;97974;-67
2023/01/28 03:02:53;;;;;;;;;;;;;;;9.67;46.15;101656.53;4957143;28;98398;-67
2023/01/28 03:05:26;;;;;;;;;;;;;;;9.67;46.36;101651.97;4955893;28;98131;-66
2023/01/28 03:07:52;;;;;;;;;;;;;;;9.67;46.48;101654.69;4941734;28;125384;-65
2023/01/28 03:10:20;;;;;;;;;;;;;;;9.67;46.11;101649.28;4939315;28;98174;-66
2023/01/28 03:38:19;;;;;;;;;;;;;;;9.56;46.83;101672.44;4941638;28;98092;-66
2023/01/28 03:40:59;;;;;;;;;;;;;;;9.56;46.06;101677.00;4958386;28;98443;-66
2023/01/28 03:43:25;;;;;;;;;;;;;;;9.54;45.79;101679.91;4940485;28;115631;-66
2023/01/28 03:45:51;;;;;;;;;;;;;;;9.53;46.81;101677.47;4941148;28;115457;-66
2023/01/28 03:48:24;;;;;;;;;;;;;;;9.52;45.81;101682.03;4953758;28;98162;-66
2023/01/28 03:50:50;;;;;;;;;;;;;;;9.50;45.79;101676.03;4955961;28;121616;-66
2023/01/28 03:53:16;;;;;;;;;;;;;;;9.51;46.85;101680.41;4939705;28;98555;-67
2023/01/28 03:55:43;;;;;;;;;;;;;;;9.50;46.27;101681.44;4957624;28;114595;-66
2023/01/28 03:58:09;;;;;;;;;;;;;;;9.49;46.16;101695.94;4956303;28;107900;-66
2023/01/28 04:00:36;;;;;;;;;;;;;;;9.49;46.18;101689.75;4955377;28;120633;-67
2023/01/28 04:03:03;;;;;;;;;;;;;;;9.49;46.02;101697.81;4956768;28;98098;-65
2023/01/28 04:05:29;;;;;;;;;;;;;;;9.47;46.23;101699.91;4943536;28;97879;-66
2023/01/28 04:07:55;;;;;;;;;;;;;;;9.46;46.32;101701.78;4949105;28;130170;-66
2023/01/28 04:10:21;;;;;;;;;;;;;;;9.45;46.39;101704.72;4956240;28;99748;-66
2023/01/28 04:12:48;;;;;;;;;;;;;;;9.43;46.17;101698.72;4955705;28;127949;-66
2023/01/28 04:15:15;;;;;;;;;;;;;;;9.41;46.70;101698.97;4944581;28;98183;-66
2023/01/28 04:17:47;;;;;;;;;;;;;;;9.38;45.97;101704.81;4961133;28;102288;-66
2023/01/28 04:20:13;;;;;;;;;;;;;;;9.37;46.41;101716.63;4945237;28;117088;-66
2023/01/28 04:22:39;;;;;;;;;;;;;;;9.37;46.88;101715.81;4957042;28;99535;-66
2023/01/28 04:25:05;;;;;;;;;;;;;;;9.36;45.97;101723.06;4944264;28;98136;-66
2023/01/28 04:27:31;;;;;;;;;;;;;;;9.35;46.00;101721.41;4961860;28;101829;-66
2023/01/28 04:29:57;;;;;;;;;;;;;;;9.32;46.10;101711.94;4959417;28;128330;-66
2023/01/28 04:32:23;;;;;;;;;;;;;;;9.33;46.00;101713.56;4958854;28;126253;-66
2023/01/28 04:34:49;;;;;;;;;;;;;;;9.31;46.48;101717.53;4929657;28;118781;-66
2023/01/28 04:37:15;;;;;;;;;;;;;;;9.30;45.91;101719.41;4959117;28;121308;-67
2023/01/28 04:39:41;;;;;;;;;;;;;;;9.29;46.56;101725.84;4928232;28;111328;-66
2023/01/28 04:42:07;;;;;;;;;;;;;;;9.28;46.54;101726.91;4927335;28;129881;-67
2023/01/28 04:44:33;;;;;;;;;;;;;;;9.28;46.15;101729.59;4960874;28;117082;-67
2023/01/28 04:46:59;;;;;;;;;;;;;;;9.28;46.10;101729.59;4959159;28;127404;-66
2023/01/28 04:49:24;;;;;;;;;;;;;;;9.28;45.79;101720.69;4942765;28;131421;-67
2023/01/28 04:51:50;;;;;;;;;;;;;;;9.28;46.14;101720.69;4941230;28;127837;-66
2023/01/28 04:54:16;;;;;;;;;;;;;;;9.26;45.85;101723.59;4927118;28;117105;-67
2023/01/28 04:56:42;;;;;;;;;;;;;;;9.27;46.06;101727.09;4939370;28;129104;-67
2023/01/28 04:59:08;;;;;;;;;;;;;;;9.26;46.08;101728.16;4945632;28;98377;-67
2023/01/28 05:01:34;;;;;;;;;;;;;;;9.25;46.65;101715.78;4941624;28;127442;-66
2023/01/28 05:04:04;;;;;;;;;;;;;;;9.24;46.18;101727.59;4943677;28;98017;-66
2023/01/28 05:06:30;;;;;;;;;;;;;;;9.24;46.36;101723.03;4957429;28;98221;-67
2023/01/28 05:08:56;;;;;;;;;;;;;;;9.22;46.17;101722.41;4960304;28;116160;-67
2023/01/28 05:11:23;;;;;;;;;;;;;;;9.22;46.48;101727.78;4956349;28;97868;-66
2023/01/28 05:13:49;;;;;;;;;;;;;;;9.24;45.93;101735.66;4926653;28;111776;-66
2023/01/28 05:16:15;;;;;;;;;;;;;;;9.22;46.70;101735.88;4940895;28;113009;-67
2023/01/28 05:18:41;;;;;;;;;;;;;;;9.24;46.09;101732.97;4958742;28;128912;-67
2023/01/28 05:21:07;;;;;;;;;;;;;;;9.24;46.10;101735.66;4946683;28;99575;-67
2023/01/28 05:23:33;;;;;;;;;;;;;;;9.24;46.14;101730.28;4941220;28;109652;-67
2023/01/28 05:25:59;;;;;;;;;;;;;;;9.25;46.25;101748.06;4956598;28;126978;-67
2023/01/28 05:28:24;;;;;;;;;;;;;;;9.24;46.59;101752.63;4959040;28;125804;-66
2023/01/28 05:30:50;;;;;;;;;;;;;;;9.23;45.81;101748.25;4957695;28;128442;-66
2023/01/28 05:33:16;;;;;;;;;;;;;;;9.24;45.97;101758.00;4928731;28;98142;-67
2023/01/28 05:35:42;;;;;;;;;;;;;;;9.25;46.09;101753.44;4943076;28;98482;-67
2023/01/28 05:38:08;;;;;;;;;;;;;;;9.25;46.34;101761.50;4962144;28;100641;-66
2023/01/28 05:40:34;;;;;;;;;;;;;;;9.25;46.49;101761.50;4959497;28;127919;-66
2023/01/28 05:43:00;;;;;;;;;;;;;;;9.25;46.63;101759.63;4952293;28;117681;-66
2023/01/28 05:45:26;;;;;;;;;;;;;;;9.24;46.38;101770.63;4942688;28;125925;-66
2023/01/28 05:47:52;;;;;;;;;;;;;;;9.25;45.95;101767.72;4955515;28;128334;-66
2023/01/28 05:50:18;;;;;;;;;;;;;;;9.24;46.59;101768.75;4954853;28;97989;-66
2023/01/28 05:52:44;;;;;;;;;;;;;;;9.24;45.96;101776.84;4956893;28;97964;-66
2023/01/28 05:55:10;;;;;;;;;;;;;;;9.24;46.37;101779.53;4944487;28;127708;-67
2023/01/28 05:57:36;;;;;;;;;;;;;;;9.24;46.20;101782.22;4960683;28;98233;-66
2023/01/28 06:00:04;;;;;;;;;;;;;;;9.25;45.88;101786.53;4939852;28;98132;-66
2023/01/28 06:02:30;;;;;;;;;;;;;;;9.24;46.12;101776.03;4943065;28;97841;-66
2023/01/28 06:04:56;;;;;;;;;;;;;;;9.24;46.69;101790.28;4926958;28;127087;-67
2023/01/28 06:07:22;;;;;;;;;;;;;;;9.24;46.44;101781.41;4942207;28;127689;-66
2023/01/28 06:09:48;;;;;;;;;;;;;;;9.24;46.57;101792.97;4958562;28;98063;-66
2023/01/28 06:12:14;;;;;;;;;;;;;;;9.23;46.46;101796.69;4958521;28;97977;-66
2023/01/28 06:14:40;;;;;;;;;;;;;;;9.23;46.14;101791.31;4960256;28;98693;-67
2023/01/28 06:17:06;;;;;;;;;;;;;;;9.23;46.58;101795.88;4944567;28;121181;-66
2023/01/28 06:19:32;;;;;;;;;;;;;;;9.23;45.77;101801.25;4961787;28;97883;-66
2023/01/28 06:21:58;;;;;;;;;;;;;;;9.22;46.02;101807.69;4959599;28;116641;-67
2023/01/28 06:24:24;;;;;;;;;;;;;;;9.22;46.24;101807.69;4956198;28;128720;-66
2023/01/28 06:26:50;;;;;;;;;;;;;;;9.21;46.20;101806.88;4956284;28;110481;-66
2023/01/28 06:29:16;;;;;;;;;;;;;;;9.22;46.14;101813.06;4956381;28;124942;-66
2023/01/28 06:31:42;;;;;;;;;;;;;;;9.22;46.26;101821.16;4958733;28;97877;-66
2023/01/28 06:34:09;;;;;;;;;;;;;;;9.22;46.22;101818.47;4942386;28;103644;-66
2023/01/28 06:36:36;;;;;;;;;;;;;;;9.21;46.43;101822.19;4940884;28;97849;-66
2023/01/28 06:39:03;;;;;;;;;;;;;;;9.21;46.24;101823.03;4943398;28;97912;-66
2023/01/28 06:41:29;;;;;;;;;;;;;;;9.26;46.59;101823.16;4943479;28;97890;-66
2023/01/28 06:43:55;;;;;;;;;;;;;;;9.32;46.07;101819.56;4941980;28;112989;-67
2023/01/28 06:46:21;;;;;;;;;;;;;;;9.41;45.97;101821.97;4925769;28;128537;-67
2023/01/28 06:48:47;;;;;;;;;;;;;;;9.46;46.10;101825.59;4959230;28;98193;-66
2023/01/28 06:51:13;;;;;;;;;;;;;;;9.50;46.49;101831.34;4957217;28;115188;-67
2023/01/28 06:53:38;;;;;;;;;;;;;;;9.54;46.35;101830.66;4955707;28;127312;-65
2023/01/28 06:56:05;;;;;;;;;;;;;;;9.58;46.41;101825.66;4958158;28;128666;-66
2023/01/28 06:58:31;;;;;;;;;;;;;;;9.61;46.61;101822.50;4943239;28;99888;-66
2023/01/28 07:00:57;;;;;;;;;;;;;;;9.64;46.27;101835.53;4946434;28;117618;-66
2023/01/28 07:03:22;;;;;;;;;;;;;;;9.66;45.89;101827.22;4952695;28;127399;-66
2023/01/28 07:05:48;;;;;;;;;;;;;;;9.69;45.81;101830.25;4954644;28;127766;-66
2023/01/28 07:08:14;;;;;;;;;;;;;;;9.71;46.21;101830.06;4958182;28;97895;-67
2023/01/28 07:10:40;;;;;;;;;;;;;;;9.72;46.41;101829.81;4938221;28;97822;-66
2023/01/28 07:13:06;;;;;;;;;;;;;;;9.76;46.43;101832.88;4935728;28;128127;-66
2023/01/28 07:15:32;;;;;;;;;;;;;;;9.78;45.77;101841.53;4935386;28;127248;-66
2023/01/28 07:17:58;;;;;;;;;;;;;;;9.77;46.38;101829.94;4953341;28;119423;-67
2023/01/28 07:20:24;;;;;;;;;;;;;;;9.80;46.28;101828.69;4936410;28;119908;-66
2023/01/28 07:22:50;;;;;;;;;;;;;;;9.82;46.02;101831.94;4950824;28;126151;-66
2023/01/28 07:25:16;;;;;;;;;;;;;;;9.82;45.91;101835.47;4939374;28;99627;-66
2023/01/28 07:27:49;;;;;;;;;;;;;;;9.86;46.08;101843.09;4954186;28;127697;-66
2023/01/28 07:30:15;;;;;;;;;;;;;;;9.87;46.03;101837.47;4937294;28;98509;-66
2023/01/28 07:32:41;;;;;;;;;;;;;;;9.89;46.14;101837.25;4954077;28;98630;-66
2023/01/28 07:35:07;;;;;;;;;;;;;;;9.89;46.01;101837.25;4935943;28;127935;-67
2023/01/28 07:37:33;;;;;;;;;;;;;;;9.92;45.92;101834.09;4951454;28;108101;-67
2023/01/28 07:39:59;;;;;;;;;;;;;;;9.94;45.69;101840.06;4952060;28;118600;-66
2023/01/28 07:42:25;;;;;;;;;;;;;;;9.95;45.87;101839.84;4921285;28;126880;-66
2023/01/28 07:44:51;;;;;;;;;;;;;;;9.96;46.25;101830.72;4925219;28;128475;-67
2023/01/28 07:47:18;;;;;;;;;;;;;;;9.99;45.82;101832.94;4921015;28;127844;-67
2023/01/28 07:49:44;;;;;;;;;;;;;;;10.00;46.05;101837.28;4937253;28;98219;-68
2023/01/28 07:52:10;;;;;;;;;;;;;;;10.02;46.07;101837.88;4954505;28;101111;-66
2023/01/28 07:54:36;;;;;;;;;;;;;;;10.03;46.09;101847.59;4955804;28;99999;-66
2023/01/28 07:57:04;;;;;;;;;;;;;;;10.06;45.90;101839.06;4937366;28;127905;-66
2023/01/28 07:59:30;;;;;;;;;;;;;;;10.06;46.32;101833.69;4958656;27;98105;-66
2023/01/28 08:01:56;;;;;;;;;;;;;;;10.09;45.82;101843.97;4956067;28;126600;-67
2023/01/28 08:04:22;;;;;;;;;;;;;;;10.12;45.83;101840.00;4938096;28;98012;-66
2023/01/28 08:06:48;;;;;;;;;;;;;;;10.13;46.11;101847.03;4923584;28;128276;-67
2023/01/28 08:09:14;;;;;;;;;;;;;;;10.14;46.01;101846.00;4939049;28;98345;-66
2023/01/28 08:11:41;;;;;;;;;;;;;;;10.16;45.99;101838.50;4939877;28;128127;-66
2023/01/28 08:14:07;;;;;;;;;;;;;;;10.16;46.25;101848.44;4939671;28;98423;-66
2023/01/28 08:16:33;;;;;;;;;;;;;;;10.18;46.20;101855.25;4953693;28;127422;-66
2023/01/28 08:18:58;;;;;;;;;;;;;;;10.19;46.19;101851.50;4956507;28;110903;-66
2023/01/28 08:21:24;;;;;;;;;;;;;;;10.21;45.58;101845.88;4940063;28;128574;-67
2023/01/28 08:23:50;;;;;;;;;;;;;;;10.21;45.58;101846.69;4956083;28;128191;-66
2023/01/28 08:26:16;;;;;;;;;;;;;;;10.24;45.92;101856.19;4941199;28;98554;-66
2023/01/28 08:28:42;;;;;;;;;;;;;;;10.26;45.83;101856.84;4957101;28;118655;-67
2023/01/28 08:31:08;;;;;;;;;;;;;;;10.27;46.27;101855.78;4941311;28;114629;-66
2023/01/28 08:33:34;;;;;;;;;;;;;;;10.30;45.86;101853.44;4939551;28;127962;-66
2023/01/28 08:36:03;;;;;;;;;;;;;;;10.30;45.59;101853.44;4939069;28;128847;-67
2023/01/28 08:38:28;;;;;;;;;;;;;;;10.33;46.18;101854.81;4956170;28;97983;-67
2023/01/28 08:40:56;;;;;;;;;;;;;;;10.36;45.74;101850.84;4923640;28;128131;-66
2023/01/28 08:43:22;;;;;;;;;;;;;;;10.38;45.54;101862.25;4953081;28;98951;-67
2023/01/28 08:45:49;;;;;;;;;;;;;;;10.40;45.88;101854.72;4954533;28;127422;-67
2023/01/28 08:48:15;;;;;;;;;;;;;;;10.41;45.68;101861.75;4940663;28;97931;-66
2023/01/28 08:50:42;;;;;;;;;;;;;;;10.43;45.72;101867.75;4939806;28;98080;-66
2023/01/28 08:53:11;;;;;;;;;;;;;;;10.43;46.18;101865.06;4926469;28;99416;-67
2023/01/28 08:55:36;;;;;;;;;;;;;;;10.44;45.76;101864.00;4924315;28;108521;-66
2023/01/28 08:58:07;;;;;;;;;;;;;;;10.44;45.48;101862.13;4939679;28;115737;-66
2023/01/28 09:00:33;;;;;;;;;;;;;;;10.45;45.64;101877.25;4941145;28;98360;-67
2023/01/28 09:02:59;;;;;;;;;;;;;;;10.46;45.82;101878.91;4921156;28;104825;-66
2023/01/28 09:05:25;;;;;;;;;;;;;;;10.46;45.70;101875.38;4954057;28;126845;-66
2023/01/28 09:07:51;;;;;;;;;;;;;;;10.47;45.66;101875.13;4920869;28;117328;-66
2023/01/28 09:10:19;;;;;;;;;;;;;;;10.48;46.14;101878.66;4935800;28;127930;-66
2023/01/28 09:12:45;;;;;;;;;;;;;;;10.49;45.89;101878.44;4951225;28;99572;-66
2023/01/28 09:15:11;;;;;;;;;;;;;;;10.48;45.59;101876.78;4951467;28;99482;-66
2023/01/28 09:17:37;;;;;;;;;;;;;;;10.51;45.60;101884.41;4953310;28;118916;-67
2023/01/28 09:20:03;;;;;;;;;;;;;;;10.52;45.43;101879.81;4936829;28;126532;-66
2023/01/28 09:22:29;;;;;;;;;;;;;;;10.55;45.92;101880.19;4922649;28;115567;-66
2023/01/28 09:24:55;;;;;;;;;;;;;;;10.57;45.59;101879.94;4936007;28;128620;-67
2023/01/28 09:27:21;;;;;;;;;;;;;;;10.59;45.35;101880.53;4941151;28;117742;-66
2023/01/28 09:29:47;;;;;;;;;;;;;;;10.61;45.44;101891.09;4955259;28;126738;-66
2023/01/28 09:32:13;;;;;;;;;;;;;;;10.62;45.42;101884.66;4939127;28;127905;-61
2023/01/28 09:34:39;;;;;;;;;;;;;;;10.63;45.42;101887.09;4940619;28;127478;-66
2023/01/28 09:37:04;;;;;;;;;;;;;;;10.66;45.83;101891.22;4956084;28;98017;-66
2023/01/28 09:39:31;;;;;;;;;;;;;;;10.68;45.36;101875.63;4936962;28;127947;-66
2023/01/28 09:42:18;;;;;;;;;;;;;;;10.71;46.04;101881.38;4954637;28;98425;-66
2023/01/28 09:45:14;;;;;;;;;;;;;;;10.76;45.81;101878.78;4955292;28;126081;-66
2023/01/28 09:47:51;;;;;;;;;;;;;;;10.80;45.84;101884.53;4958126;28;98442;-66
2023/01/28 09:50:32;;;;;;;;;;;;;;;10.83;45.34;101889.47;4939664;28;105884;-66
2023/01/28 09:53:18;;;;;;;;;;;;;;;10.87;45.76;101898.72;4953076;28;98041;-66
2023/01/28 09:55:54;;;;;;;;;;;;;;;10.93;45.75;101902.38;4939207;28;103844;-67
2023/01/28 09:58:20;;;;;;;;;;;;;;;10.97;45.64;101892.75;4939820;28;115440;-66
2023/01/28 10:01:08;;;;;;;;;;;;;;;11.01;45.38;101896.63;4949843;28;98521;-66
2023/01/28 10:04:02;;;;;;;;;;;;;;;11.05;45.74;101905.91;4956654;28;99431;-66
2023/01/28 10:06:59;;;;;;;;;;;;;;;11.07;45.45;101907.28;4954538;28;98291;-67
2023/01/28 10:09:47;;;;;;;;;;;;;;;11.09;45.61;101904.38;4970975;27;98100;-66
2023/01/28 10:12:13;;;;;;;;;;;;;;;11.12;45.38;101903.06;4941956;28;100251;-66
2023/01/28 10:14:48;;;;;;;;;;;;;;;11.15;45.42;101907.97;4957330;28;98465;-67
2023/01/28 10:17:16;;;;;;;;;;;;;;;11.16;45.67;101918.56;4956050;28;97889;-66
2023/01/28 10:19:46;;;;;;;;;;;;;;;11.19;45.63;101917.25;4954557;28;98054;-66
2023/01/28 10:22:18;;;;;;;;;;;;;;;11.21;45.81;101917.84;4923971;28;127173;-66
2023/01/28 10:24:48;;;;;;;;;;;;;;;11.23;45.61;101924.63;4938446;28;127639;-66
2023/01/28 10:27:15;;;;;;;;;;;;;;;11.24;45.65;101915.50;4950793;28;98413;-66
2023/01/28 10:29:44;;;;;;;;;;;;;;;11.27;45.64;101920.41;4941252;28;98255;-66
2023/01/28 10:32:33;;;;;;;;;;;;;;;11.30;45.62;101925.34;4949530;28;98457;-66
2023/01/28 10:35:01;;;;;;;;;;;;;;;11.33;45.46;101918.66;4955174;28;123813;-66
2023/01/28 10:37:28;;;;;;;;;;;;;;;11.34;45.66;101922.97;4954159;28;98148;-66
2023/01/28 10:39:57;;;;;;;;;;;;;;;11.34;45.55;101920.28;4954435;28;98178;-66
2023/01/28 10:42:31;;;;;;;;;;;;;;;11.36;45.43;101920.03;4927420;28;98531;-66
2023/01/28 10:45:21;;;;;;;;;;;;;;;11.38;45.72;101920.63;4938335;28;98260;-66
2023/01/28 10:47:59;;;;;;;;;;;;;;;11.39;45.49;101914.97;4955325;28;98408;-65
2023/01/28 10:50:27;;;;;;;;;;;;;;;11.39;45.42;101920.38;4950147;28;101645;-67
2023/01/28 10:52:57;;;;;;;;;;;;;;;11.41;45.64;101917.47;4936147;28;98375;-65
2023/01/28 10:55:33;;;;;;;;;;;;;;;11.42;45.39;101917.22;4955975;28;98035;-66
2023/01/28 10:57:59;;;;;;;;;;;;;;;11.43;45.38;101915.34;4938631;28;123266;-67
2023/01/28 11:00:26;;;;;;;;;;;;;;;11.44;45.56;101915.13;4937436;28;119323;-66
2023/01/28 11:02:53;;;;;;;;;;;;;;;11.45;45.50;101921.34;4955969;28;119280;-67
2023/01/28 11:05:20;;;;;;;;;;;;;;;11.47;45.60;101920.00;4952664;28;98575;-67
2023/01/28 11:07:50;;;;;;;;;;;;;;;11.47;45.49;101913.78;4938402;28;99181;-66
2023/01/28 11:10:36;;;;;;;;;;;;;;;11.48;45.53;101910.06;4934469;28;98400;-67
2023/01/28 11:13:03;;;;;;;;;;;;;;;11.49;45.51;101923.31;4936811;28;98372;-66
2023/01/28 11:15:29;;;;;;;;;;;;;;;11.50;45.31;101916.03;4923368;28;98483;-66
2023/01/28 11:18:05;;;;;;;;;;;;;;;11.49;45.71;101915.22;4937411;28;122500;-66
2023/01/28 11:20:36;;;;;;;;;;;;;;;11.50;45.38;101911.44;4952725;28;98188;-66
2023/01/28 11:23:02;;;;;;;;;;;;;;;11.51;45.95;101909.56;4950260;28;116441;-66
2023/01/28 11:25:36;;;;;;;;;;;;;;;11.51;45.50;101906.84;4936051;28;128044;-66
2023/01/28 11:28:04;;;;;;;;;;;;;;;11.52;45.42;101897.72;4953230;28;98229;-66
2023/01/28 11:30:34;;;;;;;;;;;;;;;11.53;45.69;101897.47;4937773;28;98632;-65
2023/01/28 11:33:09;;;;;;;;;;;;;;;11.55;45.52;101891.81;4937992;28;121933;-66
2023/01/28 11:35:35;;;;;;;;;;;;;;;11.58;45.49;101896.75;4952124;28;99068;-66
2023/01/28 11:38:01;;;;;;;;;;;;;;;11.58;45.58;101893.22;4952385;28;126842;-66
2023/01/28 11:40:27;;;;;;;;;;;;;;;11.60;45.47;101888.44;4953356;28;98171;-65
2023/01/28 11:42:56;;;;;;;;;;;;;;;11.61;45.42;101893.56;4938085;28;98152;-65
2023/01/28 11:45:35;;;;;;;;;;;;;;;11.62;45.51;101895.22;4953843;28;98556;-67
2023/01/28 11:48:30;;;;;;;;;;;;;;;11.63;45.45;101902.28;4939997;28;98113;-66
2023/01/28 11:51:03;;;;;;;;;;;;;;;11.65;45.54;101892.03;4956331;28;98301;-67
2023/01/28 11:53:52;;;;;;;;;;;;;;;11.67;45.56;101884.53;4937513;28;123621;-67
2023/01/28 11:56:32;;;;;;;;;;;;;;;11.70;45.64;101889.44;4969242;27;98412;-66
2023/01/28 11:59:23;;;;;;;;;;;;;;;11.72;45.31;101891.91;4966595;28;99539;-66
2023/01/28 12:02:02;;;;;;;;;;;;;;;11.74;45.39;101887.88;4935995;28;118835;-66
2023/01/28 12:04:43;;;;;;;;;;;;;;;11.75;45.40;101889.53;4936792;28;130309;-66
2023/01/28 12:07:21;;;;;;;;;;;;;;;11.79;45.41;101890.69;4936894;28;124227;-66
2023/01/28 12:09:53;;;;;;;;;;;;;;;11.79;45.51;101881.78;4952752;28;98125;-65
2023/01/28 12:13:11;;;;;;;;;;;;;;;11.82;45.63;101875.06;4951881;28;110288;-66
2023/01/28 12:15:48;;;;;;;;;;;;;;;11.84;45.43;101881.09;4936244;28;99537;-66
2023/01/28 12:18:17;;;;;;;;;;;;;;;11.85;45.34;101877.31;4952997;28;98276;-68
2023/01/28 12:21:07;;;;;;;;;;;;;;;11.87;45.47;101877.88;4952506;28;98240;-66
2023/01/28 12:23:49;;;;;;;;;;;;;;;11.89;45.38;101862.25;4940125;28;97926;-67
2023/01/28 12:26:34;;;;;;;;;;;;;;;11.92;45.34;101870.69;4952988;28;98249;-66
2023/01/28 12:29:16;;;;;;;;;;;;;;;11.94;45.44;101867.75;4951452;28;98285;-65
2023/01/28 12:31:57;;;;;;;;;;;;;;;11.93;45.26;101868.81;4952358;28;98211;-67
2023/01/28 12:34:58;;;;;;;;;;;;;;;11.93;45.48;101871.50;4954301;28;99581;-66
2023/01/28 12:37:36;;;;;;;;;;;;;;;11.92;45.33;101864.47;4955404;28;99931;-66
2023/01/28 12:40:31;;;;;;;;;;;;;;;11.92;45.32;101867.19;4939371;28;126464;-65
2023/01/28 12:43:29;;;;;;;;;;;;;;;11.91;45.37;101866.38;4955296;28;126439;-67
2023/01/28 12:45:59;;;;;;;;;;;;;;;11.90;45.34;101866.59;4950090;28;98316;-66
2023/01/28 12:48:41;;;;;;;;;;;;;;;11.89;45.40;101860.38;4938030;28;125964;-66
2023/01/28 12:51:16;;;;;;;;;;;;;;;11.89;45.13;101854.97;4972537;27;127855;-66
2023/01/28 12:53:49;;;;;;;;;;;;;;;11.90;45.43;101853.09;4940733;28;125391;-66
2023/01/28 12:56:34;;;;;;;;;;;;;;;11.91;45.28;101852.03;4957860;28;99521;-66
2023/01/28 12:59:37;;;;;;;;;;;;;;;11.91;45.38;101862.84;4951247;28;98218;-66
2023/01/28 13:02:13;;;;;;;;;;;;;;;11.90;45.47;101864.69;4951303;28;125043;-67
2023/01/28 13:04:51;;;;;;;;;;;;;;;11.90;45.33;101855.78;4956548;28;100321;-66
2023/01/28 13:07:20;;;;;;;;;;;;;;;11.88;45.21;101857.91;4956975;28;97925;-66
2023/01/28 13:09:52;;;;;;;;;;;;;;;11.89;45.32;101856.84;4954624;28;127789;-67
2023/01/28 13:12:18;;;;;;;;;;;;;;;11.89;45.39;101859.56;4968687;27;113001;-66
2023/01/28 13:14:44;;;;;;;;;;;;;;;11.89;45.27;101863.06;4956264;28;112741;-66
2023/01/28 13:17:30;;;;;;;;;;;;;;;11.90;45.24;101855.78;4940077;28;103784;-66
2023/01/28 13:19:59;;;;;;;;;;;;;;;11.91;45.28;101857.44;4956218;28;98332;-66